Aroma Park, Illinois
Current Conditions -  °F | °C
As of 7:55 AM on Saturday 22 Nov 2014 (Local Time) from KIKK Reporting Station
Overcast Overcast  
Wind Chill: 30°   Ceiling: 1900
Heat Index: 39°   Visibility: 10mi
Dew Point: 36°   Wind: 15mph
Humidity: 89%   Direction: 190°S
Pressure: 30.06"   Gusts: NA
Location:  41.08°N, 87.81°W
Report Text: KIKK 221355Z AUTO 19013KT 10SM OVC019 04/02 A3006 RMK AO2 T00370020
Loading
Personal Weather Stations






























Interactive Weather Map New forecast layout! Learn more

10-Day Weather Forecast

Advertisements
Track Severe Weather on mobile